Time;durP1;ratioP1;P1;durP2;ratioP2;P2;SDS_P1;SDS_P2;PMS_P1;PMS_P2;Temp;Humidity;BMP_temperature;BMP_pressure;BME280_temperature;BME280_humidity;BME280_pressure;Samples;Min_cycle;Max_cycle;Signal;HPM_P1;HPM_P2
2022/11/20 00:01:33;;;;;;;;;;;6.80;66.70;;;1.89;100.00;95148.16;4973182;28;19909;-52
2022/11/20 00:04:00;;;;;;;;;;;6.90;66.60;;;1.95;100.00;95147.28;4990723;28;19909;-54
2022/11/20 00:06:27;;;;;;;;;;;6.90;66.50;;;2.02;100.00;95155.88;4993379;28;19913;-51
2022/11/20 00:08:59;;;;;;;;;;;7.00;66.50;;;2.09;100.00;95155.78;5011071;28;19913;-51
2022/11/20 00:11:30;;;;;;;;;;;7.00;66.50;;;2.13;100.00;95151.72;4974518;28;19909;-52
2022/11/20 00:13:59;;;;;;;;;;;7.10;66.50;;;2.21;100.00;95159.28;4971855;28;19913;-52
2022/11/20 00:16:32;;;;;;;;;;;7.10;66.50;;;2.28;100.00;95159.97;5003954;28;20260;-50
2022/11/20 00:19:01;;;;;;;;;;;7.20;66.70;;;2.36;100.00;95158.88;4987310;28;19916;-53
2022/11/20 00:21:31;;;;;;;;;;;7.30;66.70;;;2.40;100.00;95157.41;4967903;28;19995;-52
2022/11/20 00:23:58;;;;;;;;;;;7.30;66.70;;;2.43;100.00;95162.22;4990960;28;19916;-54
2022/11/20 00:26:26;;;;;;;;;;;7.40;66.80;;;2.49;100.00;95160.53;5010276;28;20377;-51
2022/11/20 00:28:58;;;;;;;;;;;7.40;66.70;;;2.52;100.00;95160.88;5011501;28;19913;-50
2022/11/20 00:31:27;;;;;;;;;;;7.40;66.70;;;2.57;100.00;95167.28;4993089;28;20295;-50
2022/11/20 00:33:54;;;;;;;;;;;7.50;66.70;;;2.64;100.00;95168.00;4974169;28;19918;-50
2022/11/20 00:36:26;;;;;;;;;;;7.60;66.80;;;2.70;100.00;95167.09;4973894;28;20381;-50
2022/11/20 00:38:58;;;;;;;;;;;7.60;66.70;;;2.71;100.00;95166.06;5001605;28;19920;-52
2022/11/20 00:41:30;;;;;;;;;;;7.60;66.70;;;2.73;100.00;95161.41;4973967;28;20444;-50
2022/11/20 00:43:57;;;;;;;;;;;7.60;66.70;;;2.74;100.00;95170.88;4987523;28;19916;-50
2022/11/20 00:46:28;;;;;;;;;;;7.60;66.70;;;2.77;100.00;95167.81;4991173;28;20314;-51
2022/11/20 00:48:54;;;;;;;;;;;7.70;66.70;;;2.77;100.00;95167.81;5009964;28;19927;-51
2022/11/20 00:51:24;;;;;;;;;;;7.70;66.70;;;2.77;100.00;95160.72;4980305;28;19932;-50
2022/11/20 00:53:51;;;;;;;;;;;7.70;66.70;;;2.80;100.00;95171.81;4990185;28;19917;-54
2022/11/20 00:56:19;;;;;;;;;;;7.70;66.70;;;2.82;100.00;95172.38;4987914;28;19909;-53
2022/11/20 00:58:49;;;;;;;;;;;7.70;66.60;;;2.84;100.00;95172.97;4993291;28;19944;-50
2022/11/20 01:01:26;;;;;;;;;;;7.70;66.70;;;2.87;100.00;95175.94;4998444;28;19993;-50
2022/11/20 01:03:55;;;;;;;;;;;7.80;66.90;;;2.88;100.00;95182.00;4990682;28;20718;-50
2022/11/20 01:06:40;;;;;;;;;;;7.80;66.90;;;2.86;100.00;95178.81;4990392;28;19971;-51
2022/11/20 01:09:14;;;;;;;;;;;7.80;66.80;;;2.90;100.00;95178.13;5008969;28;19909;-53
2022/11/20 01:11:43;;;;;;;;;;;7.80;66.80;;;2.92;100.00;95177.91;4989629;28;20369;-50
2022/11/20 01:14:20;;;;;;;;;;;7.80;66.80;;;2.91;100.00;95177.06;5004905;28;19921;-50
2022/11/20 01:16:51;;;;;;;;;;;7.90;66.90;;;2.92;100.00;95191.06;5010919;28;19909;-51
2022/11/20 01:19:22;;;;;;;;;;;7.80;66.80;;;2.87;100.00;95188.28;4994117;28;20328;-50
2022/11/20 01:21:52;;;;;;;;;;;7.90;66.90;;;2.89;100.00;95192.31;4972884;28;20292;-51
2022/11/20 01:24:21;;;;;;;;;;;7.90;66.90;;;2.89;100.00;95184.41;4990931;28;19917;-50
2022/11/20 01:26:51;;;;;;;;;;;8.00;67.00;;;2.92;100.00;95186.59;4997949;28;19909;-53
2022/11/20 01:29:26;;;;;;;;;;;8.00;66.90;;;2.97;100.00;95183.28;4977684;28;19909;-52
2022/11/20 01:31:52;;;;;;;;;;;8.00;66.90;;;3.01;100.00;95187.88;4974390;28;20330;-52
2022/11/20 01:34:21;;;;;;;;;;;8.00;67.00;;;3.06;100.00;95187.19;5009090;28;19913;-50
2022/11/20 01:36:56;;;;;;;;;;;8.10;67.10;;;3.11;100.00;95189.94;4989073;28;20244;-52
2022/11/20 01:39:25;;;;;;;;;;;8.10;67.10;;;3.13;100.00;95190.50;5010622;28;19913;-51
2022/11/20 01:45:50;;;;;;;;;;;8.20;67.20;;;3.19;100.00;95194.06;5008964;28;19916;-51
2022/11/20 01:48:19;;;;;;;;;;;8.20;67.20;;;3.21;100.00;95202.53;4939285;28;19945;-51
2022/11/20 01:50:50;;;;;;;;;;;8.20;67.20;;;3.23;100.00;95200.50;4979539;28;19910;-51
2022/11/20 01:53:23;;;;;;;;;;;8.20;67.20;;;3.22;100.00;95198.88;4989159;28;20300;-53
2022/11/20 01:55:55;;;;;;;;;;;8.30;67.30;;;3.27;100.00;95198.19;4985604;28;19909;-53
2022/11/20 01:58:28;;;;;;;;;;;8.30;67.20;;;3.32;100.00;95198.31;4973372;28;19909;-50
2022/11/20 02:00:55;;;;;;;;;;;8.30;67.20;;;3.34;100.00;95202.31;4990372;28;19910;-52
2022/11/20 02:03:21;;;;;;;;;;;8.40;67.30;;;3.37;100.00;95208.97;5008687;28;19909;-53
2022/11/20 02:06:12;;;;;;;;;;;8.40;67.30;;;3.38;100.00;95200.81;4992543;28;19931;-50
2022/11/20 02:08:44;;;;;;;;;;;8.40;67.20;;;3.39;100.00;95207.72;5003403;28;19932;-50
2022/11/20 02:11:12;;;;;;;;;;;8.40;67.20;;;3.40;100.00;95209.31;5010005;28;20394;-51
2022/11/20 02:13:44;;;;;;;;;;;8.40;67.20;;;3.42;100.00;95204.63;5018746;28;19921;-55
2022/11/20 02:16:35;;;;;;;;;;;8.40;67.20;;;3.45;100.00;95198.91;4973195;28;20380;-51
2022/11/20 02:19:06;;;;;;;;;;;8.50;67.30;;;3.45;100.00;95208.63;4957966;28;19910;-51
2022/11/20 02:21:47;;;;;;;;;;;8.50;67.30;;;3.45;100.00;95200.72;4977009;28;20354;-55
2022/11/20 02:24:19;;;;;;;;;;;8.50;67.20;;;3.46;100.00;95200.50;4978186;28;20401;-53
2022/11/20 02:26:57;;;;;;;;;;;8.50;67.20;;;3.47;100.00;95207.34;5010102;28;20011;-51
2022/11/20 02:29:57;;;;;;;;;;;8.50;67.20;;;3.50;100.00;95200.03;5013952;28;19917;-50
2022/11/20 02:32:35;;;;;;;;;;;8.50;67.20;;;3.51;100.00;95206.91;4979175;28;19916;-50
2022/11/20 02:35:25;;;;;;;;;;;8.50;67.30;;;3.52;100.00;95211.94;4992939;28;19925;-53
2022/11/20 02:37:56;;;;;;;;;;;8.50;67.20;;;3.57;100.00;95205.97;5008348;28;19941;-51
2022/11/20 02:40:25;;;;;;;;;;;8.60;67.40;;;3.58;100.00;95213.66;4992799;28;19924;-53
2022/11/20 02:42:57;;;;;;;;;;;8.60;67.30;;;3.60;100.00;95205.53;4971067;28;19909;-53
2022/11/20 02:45:26;;;;;;;;;;;8.60;67.30;;;3.59;100.00;95214.47;4988108;28;19955;-51
2022/11/20 02:47:55;;;;;;;;;;;8.60;67.30;;;3.59;100.00;95209.19;4995944;28;19948;-50
2022/11/20 02:50:26;;;;;;;;;;;8.60;67.30;;;3.57;100.00;95201.50;5024458;28;19909;-50
2022/11/20 02:52:52;;;;;;;;;;;8.60;67.30;;;3.59;100.00;95199.47;5032037;28;20392;-50
2022/11/20 02:55:30;;;;;;;;;;;8.60;67.30;;;3.60;100.00;95194.97;5031719;28;19915;-53
2022/11/20 02:57:59;;;;;;;;;;;8.60;67.30;;;3.59;100.00;95196.81;5003140;28;19913;-50
2022/11/20 03:00:28;;;;;;;;;;;8.60;67.30;;;3.59;100.00;95196.03;5000463;28;19928;-51
2022/11/20 03:02:54;;;;;;;;;;;8.60;67.30;;;3.57;100.00;95192.81;5006574;28;19909;-51
2022/11/20 03:05:23;;;;;;;;;;;8.60;67.30;;;3.56;100.00;95193.84;4997465;28;19935;-50
2022/11/20 03:07:51;;;;;;;;;;;8.60;67.30;;;3.57;100.00;95190.97;5005068;28;19916;-51
2022/11/20 03:10:17;;;;;;;;;;;8.60;67.30;;;3.60;100.00;95192.34;5028407;28;19912;-52
2022/11/20 03:12:45;;;;;;;;;;;8.60;67.20;;;3.61;100.00;95194.78;4985011;28;19955;-50
2022/11/20 03:15:20;;;;;;;;;;;8.60;67.30;;;3.65;100.00;95195.09;4965153;28;20047;-50
2022/11/20 03:17:49;;;;;;;;;;;8.60;67.30;;;3.67;100.00;95195.69;5032579;28;19958;-51
2022/11/20 03:20:17;;;;;;;;;;;8.60;67.20;;;3.69;100.00;95199.69;5009083;28;19909;-52
2022/11/20 03:22:46;;;;;;;;;;;8.60;67.20;;;3.71;100.00;95192.34;5007723;28;19924;-51
2022/11/20 03:25:12;;;;;;;;;;;8.60;67.20;;;3.71;100.00;95184.44;5006061;28;19916;-54
2022/11/20 03:27:50;;;;;;;;;;;8.70;67.20;;;3.70;100.00;95193.41;5008155;28;19910;-50
2022/11/20 03:30:15;;;;;;;;;;;8.60;67.10;;;3.72;100.00;95187.88;4996147;28;19909;-51
2022/11/20 03:32:42;;;;;;;;;;;8.70;67.20;;;3.72;100.00;95191.31;5024665;28;19915;-51
2022/11/20 03:35:09;;;;;;;;;;;8.60;67.10;;;3.70;100.00;95198.66;5007639;28;19963;-52
2022/11/20 03:37:34;;;;;;;;;;;8.60;67.10;;;3.70;99.94;95189.97;4993938;28;20009;-50
2022/11/20 03:40:00;;;;;;;;;;;8.60;67.10;;;3.70;100.00;95189.97;5021139;28;19921;-50
2022/11/20 03:45:18;;;;;;;;;;;8.60;67.10;;;3.69;100.00;95198.88;4985675;28;19928;-50
2022/11/20 03:47:45;;;;;;;;;;;8.60;67.00;;;3.68;100.00;95198.09;4995298;28;20322;-51
2022/11/20 03:50:20;;;;;;;;;;;8.60;67.10;;;3.68;100.00;95190.19;5019094;28;19956;-52
2022/11/20 03:52:48;;;;;;;;;;;8.60;67.10;;;3.69;100.00;95196.25;5007236;28;19916;-50
2022/11/20 03:55:14;;;;;;;;;;;8.60;67.00;;;3.66;100.00;95207.25;5013232;28;20359;-51
2022/11/20 03:57:40;;;;;;;;;;;8.60;67.00;;;3.63;100.00;95199.78;5030180;28;19920;-51
2022/11/20 04:00:07;;;;;;;;;;;8.60;67.00;;;3.65;100.00;95208.28;5030536;28;19979;-57
2022/11/20 04:02:33;;;;;;;;;;;8.60;67.00;;;3.65;100.00;95206.44;5028442;28;20383;-55
2022/11/20 04:04:58;;;;;;;;;;;8.60;67.00;;;3.65;100.00;95209.06;5001697;28;19909;-57
2022/11/20 04:07:27;;;;;;;;;;;8.60;67.00;;;3.65;100.00;95203.00;5006036;28;19908;-55
2022/11/20 04:09:56;;;;;;;;;;;8.60;67.00;;;3.63;100.00;95203.22;5031366;28;19958;-54
2022/11/20 04:12:24;;;;;;;;;;;8.60;66.90;;;3.64;100.00;95204.06;4976693;28;20334;-56
2022/11/20 04:14:50;;;;;;;;;;;8.60;67.00;;;3.63;100.00;95205.06;4999477;28;20384;-53
2022/11/20 04:17:15;;;;;;;;;;;8.60;67.00;;;3.62;100.00;95208.75;5003903;28;19917;-55
2022/11/20 04:19:42;;;;;;;;;;;8.60;66.90;;;3.62;100.00;95204.25;5002594;28;19909;-54
2022/11/20 04:22:08;;;;;;;;;;;8.60;66.90;;;3.62;100.00;95209.53;4990338;28;19909;-56
2022/11/20 04:24:34;;;;;;;;;;;8.70;66.90;;;3.63;100.00;95211.13;4994176;28;19932;-55
2022/11/20 04:26:59;;;;;;;;;;;8.60;66.90;;;3.62;100.00;95209.53;4991818;28;19913;-53
2022/11/20 04:29:28;;;;;;;;;;;8.60;66.90;;;3.62;100.00;95211.38;5008814;28;20438;-58
2022/11/20 04:31:54;;;;;;;;;;;8.60;66.90;;;3.60;100.00;95205.53;5001074;28;19920;-56
2022/11/20 04:34:19;;;;;;;;;;;8.60;66.90;;;3.61;100.00;95210.56;4990931;28;20446;-55
2022/11/20 04:36:48;;;;;;;;;;;8.60;66.90;;;3.57;100.00;95205.97;5007030;28;20410;-56
2022/11/20 04:39:17;;;;;;;;;;;8.50;66.80;;;3.57;100.00;95214.69;4994480;28;19944;-57
2022/11/20 04:41:43;;;;;;;;;;;8.50;66.80;;;3.54;100.00;95212.53;5008922;28;19909;-58
2022/11/20 04:44:09;;;;;;;;;;;8.50;66.80;;;3.48;100.00;95216.88;4991155;28;19916;-58
2022/11/20 04:46:41;;;;;;;;;;;8.50;66.80;;;3.47;100.00;95211.81;5011214;28;20398;-53
2022/11/20 04:49:10;;;;;;;;;;;8.40;66.80;;;3.42;100.00;95204.63;5016351;28;19908;-58
2022/11/20 04:51:39;;;;;;;;;;;8.40;66.80;;;3.36;100.00;95200.28;4993138;28;19963;-57
2022/11/20 04:54:08;;;;;;;;;;;8.30;66.80;;;3.25;100.00;95204.47;5010685;28;20371;-53
2022/11/20 04:56:34;;;;;;;;;;;8.30;66.80;;;3.19;100.00;95201.97;4992811;28;19919;-57
2022/11/20 04:59:02;;;;;;;;;;;8.20;66.70;;;3.11;100.00;95199.69;5009720;28;19925;-57
2022/11/20 05:01:30;;;;;;;;;;;8.20;66.70;;;3.04;100.00;95191.88;4988751;28;20008;-58
2022/11/20 05:03:59;;;;;;;;;;;8.10;66.70;;;2.99;100.00;95195.19;4987266;28;19944;-57
2022/11/20 05:06:25;;;;;;;;;;;8.00;66.70;;;2.90;100.00;95191.28;4998157;28;20393;-56
2022/11/20 05:08:50;;;;;;;;;;;7.90;66.80;;;2.83;100.00;95195.84;5002911;28;19913;-56
2022/11/20 05:11:21;;;;;;;;;;;7.90;66.80;;;2.77;100.00;95199.38;4980193;28;19920;-54
2022/11/20 05:13:48;;;;;;;;;;;7.80;66.80;;;2.68;100.00;95198.88;5003087;28;20431;-57
2022/11/20 05:16:23;;;;;;;;;;;7.70;66.80;;;2.59;100.00;95196.78;4991497;28;19940;-54
2022/11/20 05:18:50;;;;;;;;;;;7.60;66.70;;;2.48;100.00;95193.91;4995576;28;19916;-55
2022/11/20 05:21:17;;;;;;;;;;;7.50;66.60;;;2.37;100.00;95194.66;4989542;28;20395;-56
2022/11/20 05:23:47;;;;;;;;;;;7.40;66.70;;;2.30;100.00;95201.81;4989453;28;19914;-57
2022/11/20 05:26:21;;;;;;;;;;;7.40;66.80;;;2.20;100.00;95198.94;4994039;28;19918;-54
2022/11/20 05:28:47;;;;;;;;;;;7.30;66.90;;;2.16;100.00;95198.53;4977802;28;19949;-59
2022/11/20 05:31:23;;;;;;;;;;;7.20;67.00;;;2.09;100.00;95210.97;4985597;28;19916;-59
2022/11/20 05:33:51;;;;;;;;;;;7.10;67.10;;;2.07;100.00;95205.94;4990930;28;19991;-56
2022/11/20 05:36:18;;;;;;;;;;;7.10;67.20;;;2.08;100.00;95210.16;4991315;28;19917;-56
2022/11/20 05:38:45;;;;;;;;;;;7.00;67.40;;;2.11;100.00;95214.19;4993144;28;19909;-58
2022/11/20 05:41:20;;;;;;;;;;;7.00;67.60;;;2.15;100.00;95210.09;5001269;28;19920;-57
2022/11/20 05:43:50;;;;;;;;;;;7.00;67.80;;;2.17;100.00;95212.50;4969818;28;20010;-59
2022/11/20 05:46:21;;;;;;;;;;;7.00;67.90;;;2.19;100.00;95221.75;4980742;28;19921;-59
2022/11/20 05:48:50;;;;;;;;;;;7.00;68.10;;;2.19;100.00;95210.44;4970226;28;19913;-55
2022/11/20 05:51:25;;;;;;;;;;;7.00;68.10;;;2.16;100.00;95209.06;5002494;28;20279;-56
2022/11/20 05:53:50;;;;;;;;;;;7.00;68.10;;;2.18;100.00;95214.91;4973402;28;19913;-57
2022/11/20 05:56:19;;;;;;;;;;;7.00;68.20;;;2.21;100.00;95218.91;4989458;28;19917;-59
2022/11/20 05:58:49;;;;;;;;;;;7.10;68.30;;;2.24;100.00;95216.66;5006512;28;20008;-55
2022/11/20 06:01:29;;;;;;;;;;;7.10;68.40;;;2.28;100.00;95217.81;4991758;28;19996;-56
2022/11/20 06:03:58;;;;;;;;;;;7.20;68.40;;;2.34;100.00;95217.94;4993141;28;19916;-56
2022/11/20 06:06:27;;;;;;;;;;;7.20;68.40;;;2.42;100.00;95225.53;5009173;28;19982;-58
2022/11/20 06:08:58;;;;;;;;;;;7.30;68.50;;;2.49;100.00;95221.00;4979952;28;20028;-58
2022/11/20 06:11:27;;;;;;;;;;;7.30;68.50;;;2.59;100.00;95229.16;4976178;28;20542;-56
2022/11/20 06:13:53;;;;;;;;;;;7.40;68.50;;;2.65;100.00;95228.25;5007104;28;19917;-55
2022/11/20 06:16:22;;;;;;;;;;;7.50;68.60;;;2.68;100.00;95230.44;5013466;28;19960;-58
2022/11/20 06:18:53;;;;;;;;;;;7.50;68.50;;;2.74;100.00;95234.00;4995524;28;19909;-57
2022/11/20 06:21:25;;;;;;;;;;;7.60;68.40;;;2.76;100.00;95235.41;5013143;28;19999;-54
2022/11/20 06:23:53;;;;;;;;;;;7.60;68.40;;;2.81;100.00;95236.53;5012085;28;20265;-56
2022/11/20 06:26:26;;;;;;;;;;;7.70;68.40;;;2.85;100.00;95240.31;4994858;28;19961;-56
2022/11/20 06:28:53;;;;;;;;;;;7.70;68.40;;;2.89;100.00;95233.59;4993686;28;19913;-55
2022/11/20 06:31:23;;;;;;;;;;;7.80;68.40;;;2.92;100.00;95236.59;4994872;28;19924;-58
2022/11/20 06:33:50;;;;;;;;;;;7.80;68.30;;;2.97;100.00;95235.91;4978151;28;19964;-57
2022/11/20 06:36:20;;;;;;;;;;;7.80;68.30;;;3.01;100.00;95234.44;5010804;28;20373;-55
2022/11/20 06:38:49;;;;;;;;;;;7.90;68.30;;;3.06;100.00;95236.38;5007913;28;19986;-54
2022/11/20 06:41:20;;;;;;;;;;;7.90;68.30;;;3.11;100.00;95237.31;4995843;28;20352;-54
2022/11/20 06:43:50;;;;;;;;;;;8.00;68.20;;;3.16;100.00;95239.25;5012436;28;20370;-57
2022/11/20 06:46:18;;;;;;;;;;;8.00;68.20;;;3.18;100.00;95234.59;5013616;28;20283;-57
2022/11/20 06:48:45;;;;;;;;;;;8.10;68.20;;;3.23;100.00;95238.16;4976276;28;20000;-58
2022/11/20 06:51:12;;;;;;;;;;;8.10;68.20;;;3.25;100.00;95233.44;4990054;28;19920;-56
2022/11/20 06:53:38;;;;;;;;;;;8.10;68.10;;;3.28;100.00;95232.19;4994683;28;20283;-53
2022/11/20 06:56:06;;;;;;;;;;;8.10;68.00;;;3.32;100.00;95241.25;4986440;28;19917;-57
2022/11/20 06:58:34;;;;;;;;;;;8.20;68.00;;;3.34;100.00;95249.72;5008466;28;19915;-55
2022/11/20 07:01:04;;;;;;;;;;;8.20;68.00;;;3.37;100.00;95251.09;4985952;28;20276;-59
2022/11/20 07:03:30;;;;;;;;;;;8.20;67.80;;;3.36;100.00;95242.41;4991500;28;19917;-56
2022/11/20 07:05:57;;;;;;;;;;;8.30;67.90;;;3.37;100.00;95253.72;5003042;28;19951;-55
2022/11/20 07:08:27;;;;;;;;;;;8.30;67.90;;;3.39;100.00;95255.09;4996080;28;20481;-56
2022/11/20 07:10:56;;;;;;;;;;;8.30;67.80;;;3.42;100.00;95251.22;4999955;28;20339;-53
2022/11/20 07:13:29;;;;;;;;;;;8.30;67.70;;;3.42;100.00;95259.13;4980156;28;19913;-57
2022/11/20 07:15:59;;;;;;;;;;;8.40;67.70;;;3.41;99.62;95260.13;5008752;28;20007;-53
2022/11/20 07:18:25;;;;;;;;;;;8.40;67.60;;;3.43;99.36;95265.97;4995665;28;19913;-56
2022/11/20 07:20:50;;;;;;;;;;;8.40;67.60;;;3.44;99.26;95265.75;5022035;28;20389;-56
2022/11/20 07:23:16;;;;;;;;;;;8.50;67.60;;;3.48;99.60;95274.00;4995671;28;20390;-53
2022/11/20 07:25:51;;;;;;;;;;;8.50;67.60;;;3.51;99.50;95276.19;4991709;28;20286;-57
2022/11/20 07:28:16;;;;;;;;;;;8.50;67.60;;;3.53;99.48;95279.38;5012065;28;20315;-58
2022/11/20 07:30:53;;;;;;;;;;;8.50;67.60;;;3.56;99.05;95278.13;4991851;28;19909;-54
2022/11/20 07:33:25;;;;;;;;;;;8.60;67.60;;;3.60;98.70;95274.00;4964189;28;19955;-55
2022/11/20 07:35:53;;;;;;;;;;;8.60;67.50;;;3.65;98.14;95279.41;4992053;28;19909;-59
2022/11/20 07:38:19;;;;;;;;;;;8.60;67.50;;;3.69;97.97;95277.91;5010950;28;20392;-54
2022/11/20 07:40:45;;;;;;;;;;;8.60;67.40;;;3.71;97.43;95275.84;5019360;28;19917;-58
2022/11/20 07:43:10;;;;;;;;;;;8.70;67.30;;;3.75;97.16;95281.47;4979217;28;20003;-57
2022/11/20 07:45:36;;;;;;;;;;;8.70;67.30;;;3.81;97.31;95283.97;4999543;28;19920;-56
2022/11/20 07:48:02;;;;;;;;;;;8.80;67.30;;;3.90;97.73;95289.72;5025787;28;19967;-54
2022/11/20 07:50:28;;;;;;;;;;;8.90;67.30;;;3.98;97.47;95285.91;4985531;28;20396;-53
2022/11/20 07:53:02;;;;;;;;;;;9.00;67.30;;;3.99;95.21;95285.72;4992283;28;20016;-57
2022/11/20 07:55:31;;;;;;;;;;;9.10;67.30;;;4.09;96.08;95277.22;4982359;28;19918;-55
2022/11/20 07:57:58;;;;;;;;;;;9.20;67.20;;;4.18;95.70;95276.63;4975159;28;19909;-57
2022/11/20 08:00:30;;;;;;;;;;;9.30;67.10;;;4.27;95.48;95271.81;4985358;28;20304;-58
2022/11/20 08:02:56;;;;;;;;;;;9.40;67.00;;;4.35;94.44;95278.53;5018610;28;19962;-59
2022/11/20 08:05:22;;;;;;;;;;;9.40;66.90;;;4.39;93.64;95283.13;5031631;28;19924;-55
2022/11/20 08:07:48;;;;;;;;;;;9.50;66.90;;;4.43;93.07;95283.47;5000172;28;19962;-57
2022/11/20 08:10:16;;;;;;;;;;;9.60;66.70;;;4.50;93.10;95288.63;4990782;28;19908;-59
2022/11/20 08:15:51;;;;;;;;;;;9.70;66.50;;;4.60;92.51;95294.09;5029703;28;20011;-57
2022/11/20 08:18:17;;;;;;;;;;;9.80;66.40;;;4.64;91.84;95295.25;4997219;28;19917;-54
2022/11/20 08:20:44;;;;;;;;;;;9.90;66.30;;;4.72;91.71;95288.78;4986140;28;20417;-58
2022/11/20 08:23:10;;;;;;;;;;;9.90;66.10;;;4.79;91.87;95294.72;5008948;28;19913;-57
2022/11/20 08:25:38;;;;;;;;;;;10.00;66.00;;;4.78;90.27;95293.91;5011752;28;19915;-59
2022/11/20 08:28:08;;;;;;;;;;;10.10;65.90;;;4.85;90.21;95296.41;5005158;28;19934;-58
2022/11/20 08:30:36;;;;;;;;;;;10.20;65.80;;;4.85;90.27;95289.28;5004127;28;19913;-57
2022/11/20 08:33:08;;;;;;;;;;;10.20;65.70;;;4.82;89.52;95287.13;4989426;28;20363;-56
2022/11/20 08:35:38;;;;;;;;;;;10.10;65.50;;;4.79;89.86;95295.50;5000887;28;19936;-54
2022/11/20 08:38:07;;;;;;;;;;;10.10;65.30;;;4.77;89.16;95297.59;4963612;28;27010;-56
2022/11/20 08:40:36;;;;;;;;;;;10.10;65.30;;;4.80;88.89;95283.94;5017550;28;20021;-59
2022/11/20 08:43:02;;;;;;;;;;;10.10;65.20;;;4.86;88.87;95287.47;4988201;28;19908;-56
2022/11/20 08:45:27;;;;;;;;;;;10.10;65.20;;;4.95;88.75;95294.00;5012318;28;19915;-58
2022/11/20 08:47:53;;;;;;;;;;;10.20;65.10;;;4.96;88.23;95305.34;5014347;28;20364;-57
2022/11/20 08:50:19;;;;;;;;;;;10.30;65.20;;;4.93;87.26;95300.53;4987082;28;20008;-54
2022/11/20 08:52:48;;;;;;;;;;;10.20;65.10;;;4.97;87.79;95302.47;5026675;28;19946;-55
2022/11/20 08:55:17;;;;;;;;;;;10.30;65.10;;;5.09;87.21;95307.69;5000241;28;20012;-58
2022/11/20 08:57:43;;;;;;;;;;;10.50;64.90;;;5.24;86.54;95310.63;5015999;28;19908;-56
2022/11/20 09:00:11;;;;;;;;;;;10.70;64.70;;;5.30;84.99;95308.88;4997245;28;19932;-54
2022/11/20 09:02:37;;;;;;;;;;;10.80;64.60;;;5.32;85.77;95312.06;5016154;28;19935;-57
2022/11/20 09:05:03;;;;;;;;;;;10.70;64.40;;;5.27;84.49;95309.34;4989711;28;19917;-59
2022/11/20 09:07:30;;;;;;;;;;;10.70;64.30;;;5.20;83.72;95311.31;5015612;28;19924;-51
2022/11/20 09:09:58;;;;;;;;;;;10.70;64.10;;;5.19;84.25;95307.06;4990874;28;19913;-56
2022/11/20 09:12:24;;;;;;;;;;;10.70;63.90;;;5.29;84.61;95309.88;5024442;28;19961;-56
2022/11/20 09:14:53;;;;;;;;;;;10.70;63.90;;;5.35;84.22;95308.94;5002874;28;19917;-55
2022/11/20 09:17:20;;;;;;;;;;;10.80;63.90;;;5.45;83.11;95303.84;4994593;28;20023;-58
2022/11/20 09:19:48;;;;;;;;;;;11.00;63.80;;;5.61;83.38;95301.44;5013851;28;19920;-53
2022/11/20 09:22:20;;;;;;;;;;;11.20;63.60;;;5.68;81.12;95302.09;5005560;28;19933;-59
2022/11/20 09:24:55;;;;;;;;;;;11.30;63.40;;;5.69;80.03;95298.41;5007927;28;20306;-58
2022/11/20 09:27:21;;;;;;;;;;;11.40;63.10;;;5.76;80.81;95296.38;5004119;28;19963;-58
2022/11/20 09:29:47;;;;;;;;;;;11.50;62.80;;;5.81;80.38;95299.13;4998339;28;19948;-56
2022/11/20 09:32:12;;;;;;;;;;;11.50;62.70;;;5.92;79.55;95300.88;5017690;28;19948;-57
2022/11/20 09:34:44;;;;;;;;;;;11.60;62.60;;;6.02;80.54;95303.72;5018516;28;19944;-52
2022/11/20 09:37:10;;;;;;;;;;;11.70;62.40;;;6.05;78.43;95299.78;4974524;28;19935;-51
2022/11/20 09:39:39;;;;;;;;;;;11.80;62.40;;;5.97;77.18;95302.81;5008307;28;19987;-50
2022/11/20 09:42:34;;;;;;;;;;;11.80;61.90;;;6.09;78.74;95300.09;5028236;28;20007;-51
2022/11/20 09:45:23;;;;;;;;;;;11.80;61.70;;;6.10;77.31;95301.69;5035858;28;19935;-50
2022/11/20 09:48:31;;;;;;;;;;;11.90;61.50;;;6.24;76.46;95309.03;4995299;28;19909;-54
2022/11/20 09:51:37;;;;;;;;;;;12.00;61.40;;;6.27;75.36;95305.13;5011622;28;19913;-50
2022/11/20 09:54:18;;;;;;;;;;;12.10;61.20;;;6.32;76.49;95309.66;5008003;28;19942;-52
2022/11/20 09:57:03;;;;;;;;;;;12.20;60.80;;;6.37;76.90;95313.19;5014938;28;19950;-51
2022/11/20 09:59:43;;;;;;;;;;;12.20;60.60;;;6.40;76.04;95310.06;5017856;23;19940;-57
2022/11/20 10:02:26;;;;;;;;;;;12.30;60.40;;;6.49;75.03;95307.78;5015079;28;19919;-54
2022/11/20 10:05:15;;;;;;;;;;;12.40;60.10;;;6.56;74.76;95305.75;5011498;28;20000;-59
2022/11/20 10:08:21;;;;;;;;;;;12.50;60.00;;;6.56;74.56;95307.59;5017029;28;19931;-59
2022/11/20 10:11:31;;;;;;;;;;;12.50;59.80;;;6.66;75.65;95299.78;5028333;28;19916;-59
2022/11/20 10:14:46;;;;;;;;;;;12.50;59.70;;;6.76;74.01;95302.53;4992962;28;19921;-58
2022/11/20 10:17:33;;;;;;;;;;;12.70;59.40;;;7.05;73.96;95308.44;4994798;28;19920;-57
2022/11/20 10:20:24;;;;;;;;;;;13.10;59.30;;;7.08;71.32;95297.38;5007454;28;19917;-58
2022/11/20 10:23:26;;;;;;;;;;;13.20;59.10;;;6.92;73.28;95306.97;4991731;28;19916;-60
2022/11/20 10:26:18;;;;;;;;;;;13.10;58.40;;;6.92;73.50;95303.50;5013536;28;19913;-58
2022/11/20 10:29:11;;;;;;;;;;;13.10;58.30;;;7.03;73.79;95302.59;5008477;28;20411;-59
2022/11/20 10:31:43;;;;;;;;;;;13.20;58.70;;;7.23;72.25;95302.00;4992078;28;20403;-56
2022/11/20 10:34:40;;;;;;;;;;;13.40;58.00;;;7.33;71.97;95294.16;5001483;28;19913;-56
2022/11/20 10:37:33;;;;;;;;;;;13.70;57.90;;;7.55;71.76;95298.56;4978578;28;19909;-55
2022/11/20 10:40:08;;;;;;;;;;;13.90;57.90;;;7.47;70.94;95293.75;5005616;28;19910;-58
2022/11/20 10:43:07;;;;;;;;;;;13.90;57.60;;;7.50;71.01;95291.38;4989074;28;19924;-60
2022/11/20 10:45:58;;;;;;;;;;;13.90;57.30;;;7.57;71.31;95280.56;4986388;28;19909;-58
2022/11/20 10:48:30;;;;;;;;;;;13.80;57.30;;;7.44;69.91;95292.41;4981418;28;19914;-59
2022/11/20 10:51:35;;;;;;;;;;;13.80;57.00;;;7.46;69.52;95287.66;5003133;28;19955;-60
2022/11/20 10:54:38;;;;;;;;;;;13.70;56.80;;;7.50;72.03;95286.09;4988720;28;20016;-58
2022/11/20 10:57:45;;;;;;;;;;;13.70;56.50;;;7.55;69.95;95282.66;4989901;28;19917;-57
2022/11/20 11:00:13;;;;;;;;;;;13.70;56.70;;;7.47;69.61;95281.28;4987256;28;19931;-54
2022/11/20 11:02:56;;;;;;;;;;;13.70;56.70;;;7.43;70.22;95277.56;4988525;28;20284;-57
2022/11/20 11:06:03;;;;;;;;;;;13.70;56.60;;;7.45;70.93;95278.09;4991219;28;20262;-54
2022/11/20 11:08:39;;;;;;;;;;;13.60;56.50;;;7.57;71.19;95269.97;4988786;28;19909;-59
2022/11/20 11:11:30;;;;;;;;;;;13.50;56.50;;;7.62;69.94;95259.44;4979433;28;20366;-59
2022/11/20 11:14:09;;;;;;;;;;;13.50;56.60;;;7.55;71.44;95262.28;4996534;28;20029;-57
2022/11/20 11:16:35;;;;;;;;;;;13.50;56.50;;;7.54;70.21;95260.66;4958312;28;19913;-54
2022/11/20 11:19:06;;;;;;;;;;;13.50;56.50;;;7.67;71.36;95262.09;4995336;28;19933;-52
2022/11/20 11:21:41;;;;;;;;;;;13.50;56.50;;;7.69;70.33;95253.91;4990800;28;19971;-55
2022/11/20 11:24:29;;;;;;;;;;;13.60;56.60;;;7.75;69.41;95248.38;4984581;28;19919;-59
2022/11/20 11:27:04;;;;;;;;;;;13.60;56.50;;;7.77;69.91;95248.13;4996715;28;20001;-58
2022/11/20 11:29:33;;;;;;;;;;;13.60;56.30;;;7.87;69.49;95234.94;5004886;28;19956;-55
2022/11/20 11:32:22;;;;;;;;;;;13.60;56.40;;;7.71;68.82;95241.16;4985071;28;19952;-58
2022/11/20 11:35:18;;;;;;;;;;;13.70;56.80;;;7.84;68.04;95233.59;5007278;28;19925;-56
2022/11/20 11:37:47;;;;;;;;;;;13.70;56.10;;;8.01;68.77;95222.81;4992367;28;19909;-58
2022/11/20 11:40:16;;;;;;;;;;;13.80;56.20;;;8.18;68.24;95227.97;5004819;28;19996;-58
2022/11/20 11:45:04;;;;;;;;;;;13.80;56.30;;;8.17;66.94;95222.91;4981445;28;19913;-60
2022/11/20 11:45:58;;;;;;;;;;;13.90;56.20;;;8.10;67.11;95213.31;4991918;28;20427;-60
2022/11/20 11:48:24;;;;;;;;;;;13.90;56.10;;;8.17;67.13;95221.03;5005373;28;19913;-60
2022/11/20 11:50:53;;;;;;;;;;;14.00;56.10;;;8.23;67.95;95213.91;4988808;28;20295;-60
2022/11/20 11:53:26;;;;;;;;;;;14.10;55.80;;;8.43;67.39;95216.69;4986199;28;20406;-60
2022/11/20 11:56:11;;;;;;;;;;;14.50;55.60;;;8.62;64.64;95209.06;4967729;28;19913;-56
2022/11/20 11:58:55;;;;;;;;;;;15.00;55.20;;;8.92;63.32;95212.84;5006544;28;19955;-59
2022/11/20 12:01:20;;;;;;;;;;;15.70;54.90;;;9.41;61.12;95197.22;4973799;28;20380;-55